KSAV/SAV METAR and TAF weather

Enter ICAO airport designator
Station Type Date Time Source
KSAV METAR 2020/06/06 19:53 UTC NOAA

KSAV 061953Z 20011KT 170V230 10SM FEW034 BKN095 OVC200 31/23 A3000 RMK AO2 SLP158 T03060233


Station Type Date Time Source
KSAV Decoded METAR 2020/06/06 19:53 UTC NOAA

SAVANNAH INTERNATIONAL AIRPORT , GA, United States (KSAV) 32-07N 81-12W 14M
Jun 06, 2020 - 03:53 PM EDT / 2020.06.06 1953 UTC
Wind: from the SSW (200 degrees) at 13 MPH (11 KT) (direction variable):0
Visibility: 10 mile(s):0
Sky conditions: overcast
Temperature: 87.1 F (30.6 C)
Heat index: 95.4 F (35.2 C):1
Dew Point: 73.9 F (23.3 C)
Relative Humidity: 65%
Pressure (altimeter): 30 in. Hg (1015 hPa)
ob: KSAV 061953Z 20011KT 170V230 10SM FEW034 BKN095 OVC200 31/23 A3000 RMK AO2 SLP158 T03060233
cycle: 20

Station Type Date Time Source
KSAV TAF 2020/06/06 18:27 UTC NOAA

TAF KSAV 061720Z 0618/0718 23009KT P6SM SCT050 OVC150
FM062100 21012G18KT P6SM SCT050 OVC150
FM070000 20008KT P6SM SCT050 OVC150
FM070600 22005KT P6SM SCT015 BKN030

Example: see airport list